PRG weather

Václav Havel Airport Prague
Prague, Prague (capital city), Czech Republic

Public forecast

Using degrees Celsius for public forecast. Weather courtesy of forecast.io.

Current aviation weather report (METAR) for Václav Havel Airport Prague

Retrieved 2020/04/05 00:00 UTC (18 minutes ago):

LKPR 050000Z 00000KT CAVOK 03/M01 Q1028 NOSIG

Aviation forecast (TAF) for Václav Havel Airport Prague

Retrieved 2020-04-05 00:16 UTC (2 minutes ago):

TAF LKPR 042300Z 0500/0606 10003KT CAVOK PROB30 TEMPO 0504/0507 6000 NSC BECMG 0509/0511 13008KT TEMPO 0511/0517 12016KT